sensor_id;sensor_type;location;lat;lon;timestamp;temperature;humidity
26037;DHT22;13810;48.376;10.944;2022-12-29T00:00:24;3.30;99.90
26037;DHT22;13810;48.376;10.944;2022-12-29T00:00:55;3.20;99.90
26037;DHT22;13810;48.376;10.944;2022-12-29T00:01:25;3.30;99.90
26037;DHT22;13810;48.376;10.944;2022-12-29T00:01:56;3.30;99.90
26037;DHT22;13810;48.376;10.944;2022-12-29T00:02:27;3.30;99.90
26037;DHT22;13810;48.376;10.944;2022-12-29T00:02:58;3.30;99.90
26037;DHT22;13810;48.376;10.944;2022-12-29T00:03:28;3.30;99.90
26037;DHT22;13810;48.376;10.944;2022-12-29T00:03:59;3.40;99.90
26037;DHT22;13810;48.376;10.944;2022-12-29T00:04:30;3.40;99.90
26037;DHT22;13810;48.376;10.944;2022-12-29T00:05:02;3.40;99.90
26037;DHT22;13810;48.376;10.944;2022-12-29T00:05:32;3.40;99.90
26037;DHT22;13810;48.376;10.944;2022-12-29T00:06:03;3.40;99.90
26037;DHT22;13810;48.376;10.944;2022-12-29T00:06:33;3.40;99.90
26037;DHT22;13810;48.376;10.944;2022-12-29T00:07:05;3.40;99.90
26037;DHT22;13810;48.376;10.944;2022-12-29T00:07:36;3.40;99.90
26037;DHT22;13810;48.376;10.944;2022-12-29T00:08:06;3.50;99.90
26037;DHT22;13810;48.376;10.944;2022-12-29T00:08:37;3.40;99.90
26037;DHT22;13810;48.376;10.944;2022-12-29T00:09:11;3.40;99.90
26037;DHT22;13810;48.376;10.944;2022-12-29T00:09:42;3.40;99.90
26037;DHT22;13810;48.376;10.944;2022-12-29T00:10:13;3.40;99.90
26037;DHT22;13810;48.376;10.944;2022-12-29T00:10:44;3.40;99.90
26037;DHT22;13810;48.376;10.944;2022-12-29T00:11:20;3.40;99.90
26037;DHT22;13810;48.376;10.944;2022-12-29T00:11:52;3.40;99.90
26037;DHT22;13810;48.376;10.944;2022-12-29T00:12:22;3.40;99.90
26037;DHT22;13810;48.376;10.944;2022-12-29T00:12:53;3.40;99.90
26037;DHT22;13810;48.376;10.944;2022-12-29T00:13:43;3.40;99.90
26037;DHT22;13810;48.376;10.944;2022-12-29T00:14:32;3.40;99.90
26037;DHT22;13810;48.376;10.944;2022-12-29T00:15:21;3.40;99.90
26037;DHT22;13810;48.376;10.944;2022-12-29T00:16:07;3.40;99.90
26037;DHT22;13810;48.376;10.944;2022-12-29T00:16:40;3.40;99.90
26037;DHT22;13810;48.376;10.944;2022-12-29T00:17:11;3.40;99.90
26037;DHT22;13810;48.376;10.944;2022-12-29T00:17:42;3.40;99.90
26037;DHT22;13810;48.376;10.944;2022-12-29T00:18:13;3.40;99.90
26037;DHT22;13810;48.376;10.944;2022-12-29T00:18:43;3.30;99.90
26037;DHT22;13810;48.376;10.944;2022-12-29T00:19:14;3.40;99.90
26037;DHT22;13810;48.376;10.944;2022-12-29T00:20:03;3.40;99.90
26037;DHT22;13810;48.376;10.944;2022-12-29T00:20:55;3.40;99.90
26037;DHT22;13810;48.376;10.944;2022-12-29T00:21:44;3.40;99.90
26037;DHT22;13810;48.376;10.944;2022-12-29T00:22:33;3.40;99.90
26037;DHT22;13810;48.376;10.944;2022-12-29T00:23:23;3.50;99.90
26037;DHT22;13810;48.376;10.944;2022-12-29T00:24:16;3.60;99.90
26037;DHT22;13810;48.376;10.944;2022-12-29T00:25:07;3.60;99.90
26037;DHT22;13810;48.376;10.944;2022-12-29T00:25:57;3.60;99.90
26037;DHT22;13810;48.376;10.944;2022-12-29T00:28:08;3.60;99.90
26037;DHT22;13810;48.376;10.944;2022-12-29T00:28:57;3.60;99.90
26037;DHT22;13810;48.376;10.944;2022-12-29T00:29:47;3.60;99.90
26037;DHT22;13810;48.376;10.944;2022-12-29T00:30:37;3.60;99.90
26037;DHT22;13810;48.376;10.944;2022-12-29T00:31:26;3.60;99.90
26037;DHT22;13810;48.376;10.944;2022-12-29T00:32:15;3.60;99.90
26037;DHT22;13810;48.376;10.944;2022-12-29T00:33:16;3.60;99.90
26037;DHT22;13810;48.376;10.944;2022-12-29T00:34:10;3.60;99.90
26037;DHT22;13810;48.376;10.944;2022-12-29T00:34:59;3.60;99.90
26037;DHT22;13810;48.376;10.944;2022-12-29T00:35:43;3.60;99.90
26037;DHT22;13810;48.376;10.944;2022-12-29T00:36:46;3.60;99.90
26037;DHT22;13810;48.376;10.944;2022-12-29T00:37:17;3.60;99.90
26037;DHT22;13810;48.376;10.944;2022-12-29T00:38:09;3.60;99.90
26037;DHT22;13810;48.376;10.944;2022-12-29T00:39:12;3.60;99.90
26037;DHT22;13810;48.376;10.944;2022-12-29T00:40:03;3.60;99.90
26037;DHT22;13810;48.376;10.944;2022-12-29T00:40:52;3.60;99.90
26037;DHT22;13810;48.376;10.944;2022-12-29T00:41:41;3.60;99.90
26037;DHT22;13810;48.376;10.944;2022-12-29T00:42:30;3.60;99.90
26037;DHT22;13810;48.376;10.944;2022-12-29T00:43:20;3.60;99.90
26037;DHT22;13810;48.376;10.944;2022-12-29T00:44:09;3.60;99.90
26037;DHT22;13810;48.376;10.944;2022-12-29T00:44:40;3.60;99.90
26037;DHT22;13810;48.376;10.944;2022-12-29T00:45:11;3.60;99.90
26037;DHT22;13810;48.376;10.944;2022-12-29T00:45:42;3.60;99.90
26037;DHT22;13810;48.376;10.944;2022-12-29T00:46:12;3.60;99.90
26037;DHT22;13810;48.376;10.944;2022-12-29T00:46:43;3.60;99.90
26037;DHT22;13810;48.376;10.944;2022-12-29T00:47:14;3.60;99.90
26037;DHT22;13810;48.376;10.944;2022-12-29T00:47:44;3.60;99.90
26037;DHT22;13810;48.376;10.944;2022-12-29T00:48:15;3.60;99.90
26037;DHT22;13810;48.376;10.944;2022-12-29T00:49:07;3.60;99.90
26037;DHT22;13810;48.376;10.944;2022-12-29T00:49:57;3.60;99.90
26037;DHT22;13810;48.376;10.944;2022-12-29T00:50:27;3.60;99.90
26037;DHT22;13810;48.376;10.944;2022-12-29T00:50:58;3.60;99.90
26037;DHT22;13810;48.376;10.944;2022-12-29T00:51:29;3.60;99.90
26037;DHT22;13810;48.376;10.944;2022-12-29T00:52:05;3.60;99.90
26037;DHT22;13810;48.376;10.944;2022-12-29T00:52:36;3.60;99.90
26037;DHT22;13810;48.376;10.944;2022-12-29T00:53:06;3.60;99.90
26037;DHT22;13810;48.376;10.944;2022-12-29T00:53:37;3.60;99.90
26037;DHT22;13810;48.376;10.944;2022-12-29T00:54:08;3.60;99.90
26037;DHT22;13810;48.376;10.944;2022-12-29T00:54:40;3.60;99.90
26037;DHT22;13810;48.376;10.944;2022-12-29T00:55:11;3.60;99.90
26037;DHT22;13810;48.376;10.944;2022-12-29T00:55:42;3.60;99.90
26037;DHT22;13810;48.376;10.944;2022-12-29T00:56:12;3.60;99.90
26037;DHT22;13810;48.376;10.944;2022-12-29T00:56:45;3.60;99.90
26037;DHT22;13810;48.376;10.944;2022-12-29T00:57:16;3.60;99.90
26037;DHT22;13810;48.376;10.944;2022-12-29T00:57:46;3.60;99.90
26037;DHT22;13810;48.376;10.944;2022-12-29T00:58:17;3.60;99.90
26037;DHT22;13810;48.376;10.944;2022-12-29T00:58:48;3.60;99.90
26037;DHT22;13810;48.376;10.944;2022-12-29T00:59:19;3.60;99.90
26037;DHT22;13810;48.376;10.944;2022-12-29T00:59:50;3.60;99.90
26037;DHT22;13810;48.376;10.944;2022-12-29T01:00:21;3.60;99.90
26037;DHT22;13810;48.376;10.944;2022-12-29T01:00:51;3.60;99.90
26037;DHT22;13810;48.376;10.944;2022-12-29T01:01:22;3.50;99.90
26037;DHT22;13810;48.376;10.944;2022-12-29T01:01:53;3.60;99.90
26037;DHT22;13810;48.376;10.944;2022-12-29T01:02:24;3.50;99.90
26037;DHT22;13810;48.376;10.944;2022-12-29T01:02:55;3.50;99.90
26037;DHT22;13810;48.376;10.944;2022-12-29T01:03:25;3.60;99.90
26037;DHT22;13810;48.376;10.944;2022-12-29T01:03:56;3.50;99.90
26037;DHT22;13810;48.376;10.944;2022-12-29T01:04:27;3.50;99.90
26037;DHT22;13810;48.376;10.944;2022-12-29T01:04:57;3.50;99.90
26037;DHT22;13810;48.376;10.944;2022-12-29T01:05:28;3.50;99.90
26037;DHT22;13810;48.376;10.944;2022-12-29T01:06:03;3.50;99.90
26037;DHT22;13810;48.376;10.944;2022-12-29T01:06:35;3.50;99.90
26037;DHT22;13810;48.376;10.944;2022-12-29T01:07:06;3.50;99.90
26037;DHT22;13810;48.376;10.944;2022-12-29T01:07:37;3.40;99.90
26037;DHT22;13810;48.376;10.944;2022-12-29T01:08:07;3.40;99.90
26037;DHT22;13810;48.376;10.944;2022-12-29T01:08:38;3.40;99.90
26037;DHT22;13810;48.376;10.944;2022-12-29T01:09:09;3.40;99.90
26037;DHT22;13810;48.376;10.944;2022-12-29T01:09:59;3.40;99.90
26037;DHT22;13810;48.376;10.944;2022-12-29T01:10:41;3.40;99.90
26037;DHT22;13810;48.376;10.944;2022-12-29T01:11:12;3.40;99.90
26037;DHT22;13810;48.376;10.944;2022-12-29T01:11:43;3.40;99.90
26037;DHT22;13810;48.376;10.944;2022-12-29T01:12:14;3.30;99.90
26037;DHT22;13810;48.376;10.944;2022-12-29T01:12:44;3.30;99.90
26037;DHT22;13810;48.376;10.944;2022-12-29T01:13:15;3.40;99.90
26037;DHT22;13810;48.376;10.944;2022-12-29T01:13:46;3.30;99.90
26037;DHT22;13810;48.376;10.944;2022-12-29T01:14:17;3.30;99.90
26037;DHT22;13810;48.376;10.944;2022-12-29T01:14:48;3.30;99.90
26037;DHT22;13810;48.376;10.944;2022-12-29T01:15:19;3.30;99.90
26037;DHT22;13810;48.376;10.944;2022-12-29T01:15:51;3.20;99.90
26037;DHT22;13810;48.376;10.944;2022-12-29T01:16:22;3.20;99.90
26037;DHT22;13810;48.376;10.944;2022-12-29T01:16:53;3.20;99.90
26037;DHT22;13810;48.376;10.944;2022-12-29T01:17:24;3.20;99.90
26037;DHT22;13810;48.376;10.944;2022-12-29T01:17:54;3.20;99.90
26037;DHT22;13810;48.376;10.944;2022-12-29T01:18:25;3.20;99.90
26037;DHT22;13810;48.376;10.944;2022-12-29T01:18:56;3.20;99.90
26037;DHT22;13810;48.376;10.944;2022-12-29T01:19:27;3.20;99.90
26037;DHT22;13810;48.376;10.944;2022-12-29T01:19:58;3.20;99.90
26037;DHT22;13810;48.376;10.944;2022-12-29T01:20:28;3.20;99.90
26037;DHT22;13810;48.376;10.944;2022-12-29T01:21:04;3.20;99.90
26037;DHT22;13810;48.376;10.944;2022-12-29T01:21:35;3.20;99.90
26037;DHT22;13810;48.376;10.944;2022-12-29T01:22:06;3.20;99.90
26037;DHT22;13810;48.376;10.944;2022-12-29T01:22:36;3.10;99.90
26037;DHT22;13810;48.376;10.944;2022-12-29T01:23:07;3.10;99.90
26037;DHT22;13810;48.376;10.944;2022-12-29T01:23:37;3.10;99.90
26037;DHT22;13810;48.376;10.944;2022-12-29T01:24:08;3.10;99.90
26037;DHT22;13810;48.376;10.944;2022-12-29T01:24:39;3.10;99.90
26037;DHT22;13810;48.376;10.944;2022-12-29T01:25:09;3.10;99.90
26037;DHT22;13810;48.376;10.944;2022-12-29T01:25:40;3.10;99.90
26037;DHT22;13810;48.376;10.944;2022-12-29T01:26:12;3.00;99.90
26037;DHT22;13810;48.376;10.944;2022-12-29T01:26:44;3.10;99.90
26037;DHT22;13810;48.376;10.944;2022-12-29T01:27:14;3.00;99.90
26037;DHT22;13810;48.376;10.944;2022-12-29T01:27:45;3.00;99.90
26037;DHT22;13810;48.376;10.944;2022-12-29T01:28:16;3.00;99.90
26037;DHT22;13810;48.376;10.944;2022-12-29T01:28:46;3.00;99.90
26037;DHT22;13810;48.376;10.944;2022-12-29T01:29:17;3.00;99.90
26037;DHT22;13810;48.376;10.944;2022-12-29T01:29:48;3.00;99.90
26037;DHT22;13810;48.376;10.944;2022-12-29T01:30:18;3.00;99.90
26037;DHT22;13810;48.376;10.944;2022-12-29T01:30:49;3.00;99.90
26037;DHT22;13810;48.376;10.944;2022-12-29T01:31:19;3.00;99.90
26037;DHT22;13810;48.376;10.944;2022-12-29T01:31:50;3.00;99.90
26037;DHT22;13810;48.376;10.944;2022-12-29T01:32:21;3.00;99.90
26037;DHT22;13810;48.376;10.944;2022-12-29T01:32:52;3.10;99.90
26037;DHT22;13810;48.376;10.944;2022-12-29T01:33:22;3.10;99.90
26037;DHT22;13810;48.376;10.944;2022-12-29T01:33:53;3.10;99.90
26037;DHT22;13810;48.376;10.944;2022-12-29T01:34:23;3.10;99.90
26037;DHT22;13810;48.376;10.944;2022-12-29T01:34:54;3.10;99.90
26037;DHT22;13810;48.376;10.944;2022-12-29T01:35:25;3.10;99.90
26037;DHT22;13810;48.376;10.944;2022-12-29T01:36:00;3.10;99.90
26037;DHT22;13810;48.376;10.944;2022-12-29T01:36:30;3.10;99.90
26037;DHT22;13810;48.376;10.944;2022-12-29T01:37:01;3.10;99.90
26037;DHT22;13810;48.376;10.944;2022-12-29T01:37:32;3.10;99.90
26037;DHT22;13810;48.376;10.944;2022-12-29T01:38:02;3.10;99.90
26037;DHT22;13810;48.376;10.944;2022-12-29T01:38:34;3.10;99.90
26037;DHT22;13810;48.376;10.944;2022-12-29T01:39:05;3.10;99.90
26037;DHT22;13810;48.376;10.944;2022-12-29T01:39:36;3.10;99.90
26037;DHT22;13810;48.376;10.944;2022-12-29T01:40:16;3.10;99.90
26037;DHT22;13810;48.376;10.944;2022-12-29T01:40:46;3.10;99.90
26037;DHT22;13810;48.376;10.944;2022-12-29T01:41:17;3.10;99.90
26037;DHT22;13810;48.376;10.944;2022-12-29T01:41:48;3.10;99.90
26037;DHT22;13810;48.376;10.944;2022-12-29T01:42:21;3.10;99.90
26037;DHT22;13810;48.376;10.944;2022-12-29T01:42:52;3.10;99.90
26037;DHT22;13810;48.376;10.944;2022-12-29T01:43:42;3.10;99.90
26037;DHT22;13810;48.376;10.944;2022-12-29T01:44:49;3.10;99.90
26037;DHT22;13810;48.376;10.944;2022-12-29T01:45:20;3.10;99.90
26037;DHT22;13810;48.376;10.944;2022-12-29T01:45:51;3.10;99.90
26037;DHT22;13810;48.376;10.944;2022-12-29T01:46:34;3.10;99.90
26037;DHT22;13810;48.376;10.944;2022-12-29T01:47:07;3.10;99.90
26037;DHT22;13810;48.376;10.944;2022-12-29T01:47:50;3.10;99.90
26037;DHT22;13810;48.376;10.944;2022-12-29T01:48:22;3.10;99.90
26037;DHT22;13810;48.376;10.944;2022-12-29T01:49:18;3.10;99.90
26037;DHT22;13810;48.376;10.944;2022-12-29T01:49:52;3.20;99.90
26037;DHT22;13810;48.376;10.944;2022-12-29T01:50:30;3.20;99.90
26037;DHT22;13810;48.376;10.944;2022-12-29T01:51:02;3.20;99.90
26037;DHT22;13810;48.376;10.944;2022-12-29T01:51:37;3.20;99.90
26037;DHT22;13810;48.376;10.944;2022-12-29T01:52:09;3.20;99.90
26037;DHT22;13810;48.376;10.944;2022-12-29T01:52:43;3.20;99.90
26037;DHT22;13810;48.376;10.944;2022-12-29T01:53:21;3.20;99.90
26037;DHT22;13810;48.376;10.944;2022-12-29T01:53:55;3.20;99.90
26037;DHT22;13810;48.376;10.944;2022-12-29T01:54:46;3.20;99.90
26037;DHT22;13810;48.376;10.944;2022-12-29T01:55:19;3.20;99.90
26037;DHT22;13810;48.376;10.944;2022-12-29T01:55:53;3.20;99.90
26037;DHT22;13810;48.376;10.944;2022-12-29T01:56:25;3.20;99.90
26037;DHT22;13810;48.376;10.944;2022-12-29T01:56:58;3.30;99.90
26037;DHT22;13810;48.376;10.944;2022-12-29T01:57:33;3.30;99.90
26037;DHT22;13810;48.376;10.944;2022-12-29T01:58:05;3.30;99.90
26037;DHT22;13810;48.376;10.944;2022-12-29T01:58:41;3.30;99.90
26037;DHT22;13810;48.376;10.944;2022-12-29T01:59:15;3.40;99.90
26037;DHT22;13810;48.376;10.944;2022-12-29T01:59:53;3.40;99.90
26037;DHT22;13810;48.376;10.944;2022-12-29T02:00:25;3.40;99.90
26037;DHT22;13810;48.376;10.944;2022-12-29T02:00:56;3.40;99.90
26037;DHT22;13810;48.376;10.944;2022-12-29T02:01:26;3.50;99.90
26037;DHT22;13810;48.376;10.944;2022-12-29T02:01:57;3.50;99.90
26037;DHT22;13810;48.376;10.944;2022-12-29T02:02:28;3.50;99.90
26037;DHT22;13810;48.376;10.944;2022-12-29T02:02:59;3.50;99.90
26037;DHT22;13810;48.376;10.944;2022-12-29T02:03:30;3.50;99.90
26037;DHT22;13810;48.376;10.944;2022-12-29T02:04:03;3.60;99.90
26037;DHT22;13810;48.376;10.944;2022-12-29T02:04:35;3.60;99.90
26037;DHT22;13810;48.376;10.944;2022-12-29T02:05:18;3.60;99.90
26037;DHT22;13810;48.376;10.944;2022-12-29T02:05:57;3.60;99.90
26037;DHT22;13810;48.376;10.944;2022-12-29T02:06:36;3.70;99.90
26037;DHT22;13810;48.376;10.944;2022-12-29T02:07:14;3.70;99.90
26037;DHT22;13810;48.376;10.944;2022-12-29T02:07:46;3.70;99.90
26037;DHT22;13810;48.376;10.944;2022-12-29T02:08:20;3.80;99.90
26037;DHT22;13810;48.376;10.944;2022-12-29T02:08:53;3.80;99.90
26037;DHT22;13810;48.376;10.944;2022-12-29T02:09:25;3.80;99.90
26037;DHT22;13810;48.376;10.944;2022-12-29T02:09:56;3.80;99.90
26037;DHT22;13810;48.376;10.944;2022-12-29T02:10:30;3.80;99.90
26037;DHT22;13810;48.376;10.944;2022-12-29T02:11:02;3.90;99.90
26037;DHT22;13810;48.376;10.944;2022-12-29T02:11:34;3.90;99.90
26037;DHT22;13810;48.376;10.944;2022-12-29T02:12:05;3.90;99.90
26037;DHT22;13810;48.376;10.944;2022-12-29T02:12:36;3.90;99.90
26037;DHT22;13810;48.376;10.944;2022-12-29T02:13:07;3.90;99.90
26037;DHT22;13810;48.376;10.944;2022-12-29T02:13:37;3.90;99.90
26037;DHT22;13810;48.376;10.944;2022-12-29T02:14:09;3.90;99.90
26037;DHT22;13810;48.376;10.944;2022-12-29T02:14:40;3.90;99.90
26037;DHT22;13810;48.376;10.944;2022-12-29T02:15:11;4.00;99.90
26037;DHT22;13810;48.376;10.944;2022-12-29T02:17:48;4.00;99.90
26037;DHT22;13810;48.376;10.944;2022-12-29T02:18:40;4.00;99.90
26037;DHT22;13810;48.376;10.944;2022-12-29T02:21:51;4.10;99.90
26037;DHT22;13810;48.376;10.944;2022-12-29T02:24:13;4.20;99.90
26037;DHT22;13810;48.376;10.944;2022-12-29T02:30:48;4.20;99.90
26037;DHT22;13810;48.376;10.944;2022-12-29T02:31:39;4.20;99.90
26037;DHT22;13810;48.376;10.944;2022-12-29T02:32:29;4.30;99.90
26037;DHT22;13810;48.376;10.944;2022-12-29T02:34:10;4.30;99.90
26037;DHT22;13810;48.376;10.944;2022-12-29T02:35:40;4.30;99.90
26037;DHT22;13810;48.376;10.944;2022-12-29T02:37:26;4.30;99.90
26037;DHT22;13810;48.376;10.944;2022-12-29T02:40:20;4.30;99.90
26037;DHT22;13810;48.376;10.944;2022-12-29T02:41:00;4.30;99.90
26037;DHT22;13810;48.376;10.944;2022-12-29T02:41:40;4.30;99.90
26037;DHT22;13810;48.376;10.944;2022-12-29T02:45:05;4.40;99.90
26037;DHT22;13810;48.376;10.944;2022-12-29T02:46:03;4.40;99.90
26037;DHT22;13810;48.376;10.944;2022-12-29T02:46:41;4.40;99.90
26037;DHT22;13810;48.376;10.944;2022-12-29T02:48:12;4.50;99.90
26037;DHT22;13810;48.376;10.944;2022-12-29T02:48:52;4.50;99.90
26037;DHT22;13810;48.376;10.944;2022-12-29T02:49:36;4.50;99.90
26037;DHT22;13810;48.376;10.944;2022-12-29T02:50:15;4.50;99.90
26037;DHT22;13810;48.376;10.944;2022-12-29T02:51:37;4.50;99.90
26037;DHT22;13810;48.376;10.944;2022-12-29T02:52:16;4.50;99.90
26037;DHT22;13810;48.376;10.944;2022-12-29T02:52:51;4.50;99.90
26037;DHT22;13810;48.376;10.944;2022-12-29T02:53:26;4.40;99.90
26037;DHT22;13810;48.376;10.944;2022-12-29T02:54:18;4.40;99.90
26037;DHT22;13810;48.376;10.944;2022-12-29T02:55:08;4.40;99.90
26037;DHT22;13810;48.376;10.944;2022-12-29T02:55:48;4.40;99.90
26037;DHT22;13810;48.376;10.944;2022-12-29T02:56:19;4.40;99.90
26037;DHT22;13810;48.376;10.944;2022-12-29T02:56:49;4.40;99.90
26037;DHT22;13810;48.376;10.944;2022-12-29T02:58:37;4.40;99.90
26037;DHT22;13810;48.376;10.944;2022-12-29T02:59:08;4.40;99.90
26037;DHT22;13810;48.376;10.944;2022-12-29T02:59:41;4.40;99.90
26037;DHT22;13810;48.376;10.944;2022-12-29T03:00:15;4.40;99.90
26037;DHT22;13810;48.376;10.944;2022-12-29T03:01:27;4.40;99.90
26037;DHT22;13810;48.376;10.944;2022-12-29T03:02:14;4.40;99.90
26037;DHT22;13810;48.376;10.944;2022-12-29T03:04:25;4.40;99.90
26037;DHT22;13810;48.376;10.944;2022-12-29T03:05:39;4.40;99.90
26037;DHT22;13810;48.376;10.944;2022-12-29T03:06:35;4.40;99.90
26037;DHT22;13810;48.376;10.944;2022-12-29T03:07:30;4.30;99.90
26037;DHT22;13810;48.376;10.944;2022-12-29T03:09:03;4.30;99.90
26037;DHT22;13810;48.376;10.944;2022-12-29T03:10:07;4.30;99.90
26037;DHT22;13810;48.376;10.944;2022-12-29T03:10:42;4.30;99.90
26037;DHT22;13810;48.376;10.944;2022-12-29T03:11:15;4.30;99.90
26037;DHT22;13810;48.376;10.944;2022-12-29T03:12:48;4.30;99.90
26037;DHT22;13810;48.376;10.944;2022-12-29T03:13:52;4.30;99.90
26037;DHT22;13810;48.376;10.944;2022-12-29T03:14:56;4.30;99.90
26037;DHT22;13810;48.376;10.944;2022-12-29T03:16:01;4.30;99.90
26037;DHT22;13810;48.376;10.944;2022-12-29T03:16:48;4.30;99.90
26037;DHT22;13810;48.376;10.944;2022-12-29T03:17:27;4.30;99.90
26037;DHT22;13810;48.376;10.944;2022-12-29T03:18:30;4.30;99.90
26037;DHT22;13810;48.376;10.944;2022-12-29T03:19:16;4.30;99.90
26037;DHT22;13810;48.376;10.944;2022-12-29T03:19:52;4.30;99.90
26037;DHT22;13810;48.376;10.944;2022-12-29T03:20:44;4.30;99.90
26037;DHT22;13810;48.376;10.944;2022-12-29T03:21:48;4.30;99.90
26037;DHT22;13810;48.376;10.944;2022-12-29T03:22:41;4.30;99.90
26037;DHT22;13810;48.376;10.944;2022-12-29T03:23:13;4.30;99.90
26037;DHT22;13810;48.376;10.944;2022-12-29T03:23:46;4.30;99.90
26037;DHT22;13810;48.376;10.944;2022-12-29T03:24:22;4.30;99.90
26037;DHT22;13810;48.376;10.944;2022-12-29T03:25:10;4.30;99.90
26037;DHT22;13810;48.376;10.944;2022-12-29T03:25:47;4.30;99.90
26037;DHT22;13810;48.376;10.944;2022-12-29T03:26:19;4.30;99.90
26037;DHT22;13810;48.376;10.944;2022-12-29T03:26:53;4.30;99.90
26037;DHT22;13810;48.376;10.944;2022-12-29T03:27:30;4.30;99.90
26037;DHT22;13810;48.376;10.944;2022-12-29T03:28:24;4.30;99.90
26037;DHT22;13810;48.376;10.944;2022-12-29T03:28:55;4.30;99.90
26037;DHT22;13810;48.376;10.944;2022-12-29T03:29:30;4.40;99.90
26037;DHT22;13810;48.376;10.944;2022-12-29T03:30:40;4.40;99.90
26037;DHT22;13810;48.376;10.944;2022-12-29T03:31:13;4.40;99.90
26037;DHT22;13810;48.376;10.944;2022-12-29T03:31:44;4.40;99.90
26037;DHT22;13810;48.376;10.944;2022-12-29T03:32:20;4.40;99.90
26037;DHT22;13810;48.376;10.944;2022-12-29T03:32:54;4.40;99.90
26037;DHT22;13810;48.376;10.944;2022-12-29T03:33:28;4.40;99.90
26037;DHT22;13810;48.376;10.944;2022-12-29T03:34:00;4.40;99.90
26037;DHT22;13810;48.376;10.944;2022-12-29T03:34:31;4.40;99.90
26037;DHT22;13810;48.376;10.944;2022-12-29T03:35:04;4.50;99.90
26037;DHT22;13810;48.376;10.944;2022-12-29T03:35:37;4.50;99.90
26037;DHT22;13810;48.376;10.944;2022-12-29T03:36:12;4.50;99.90
26037;DHT22;13810;48.376;10.944;2022-12-29T03:36:58;4.50;99.90
26037;DHT22;13810;48.376;10.944;2022-12-29T03:37:37;4.50;99.90
26037;DHT22;13810;48.376;10.944;2022-12-29T03:38:30;4.50;99.90
26037;DHT22;13810;48.376;10.944;2022-12-29T03:39:09;4.50;99.90
26037;DHT22;13810;48.376;10.944;2022-12-29T03:39:42;4.50;99.90
26037;DHT22;13810;48.376;10.944;2022-12-29T03:40:13;4.60;99.90
26037;DHT22;13810;48.376;10.944;2022-12-29T03:40:47;4.50;99.90
26037;DHT22;13810;48.376;10.944;2022-12-29T03:41:24;4.60;99.90
26037;DHT22;13810;48.376;10.944;2022-12-29T03:42:01;4.50;99.90
26037;DHT22;13810;48.376;10.944;2022-12-29T03:42:35;4.60;99.90
26037;DHT22;13810;48.376;10.944;2022-12-29T03:43:06;4.60;99.90
26037;DHT22;13810;48.376;10.944;2022-12-29T03:43:37;4.60;99.90
26037;DHT22;13810;48.376;10.944;2022-12-29T03:44:08;4.60;99.90
26037;DHT22;13810;48.376;10.944;2022-12-29T03:44:42;4.70;99.90
26037;DHT22;13810;48.376;10.944;2022-12-29T03:45:13;4.70;99.90
26037;DHT22;13810;48.376;10.944;2022-12-29T03:45:44;4.70;99.90
26037;DHT22;13810;48.376;10.944;2022-12-29T03:46:15;4.70;99.90
26037;DHT22;13810;48.376;10.944;2022-12-29T03:46:45;4.70;99.90
26037;DHT22;13810;48.376;10.944;2022-12-29T03:47:16;4.80;99.90
26037;DHT22;13810;48.376;10.944;2022-12-29T03:47:46;4.80;99.90
26037;DHT22;13810;48.376;10.944;2022-12-29T03:48:17;4.80;99.90
26037;DHT22;13810;48.376;10.944;2022-12-29T03:48:48;4.80;99.90
26037;DHT22;13810;48.376;10.944;2022-12-29T03:49:18;4.90;99.90
26037;DHT22;13810;48.376;10.944;2022-12-29T03:49:50;4.90;99.90
26037;DHT22;13810;48.376;10.944;2022-12-29T03:50:21;4.90;99.90
26037;DHT22;13810;48.376;10.944;2022-12-29T03:50:51;5.00;99.90
26037;DHT22;13810;48.376;10.944;2022-12-29T03:51:22;5.00;99.90
26037;DHT22;13810;48.376;10.944;2022-12-29T03:51:53;5.00;99.90
26037;DHT22;13810;48.376;10.944;2022-12-29T03:52:23;5.00;99.90
26037;DHT22;13810;48.376;10.944;2022-12-29T03:52:54;5.00;99.90
26037;DHT22;13810;48.376;10.944;2022-12-29T03:53:25;5.00;99.90
26037;DHT22;13810;48.376;10.944;2022-12-29T03:53:55;5.10;99.90
26037;DHT22;13810;48.376;10.944;2022-12-29T03:54:26;5.00;99.90
26037;DHT22;13810;48.376;10.944;2022-12-29T03:54:57;5.10;99.90
26037;DHT22;13810;48.376;10.944;2022-12-29T03:55:27;5.10;99.90
26037;DHT22;13810;48.376;10.944;2022-12-29T03:55:58;5.10;99.90
26037;DHT22;13810;48.376;10.944;2022-12-29T03:56:29;5.10;99.90
26037;DHT22;13810;48.376;10.944;2022-12-29T03:56:59;5.10;99.90
26037;DHT22;13810;48.376;10.944;2022-12-29T03:57:30;5.10;99.90
26037;DHT22;13810;48.376;10.944;2022-12-29T03:58:00;5.10;99.90
26037;DHT22;13810;48.376;10.944;2022-12-29T03:58:31;5.10;99.90
26037;DHT22;13810;48.376;10.944;2022-12-29T03:59:02;5.20;99.90
26037;DHT22;13810;48.376;10.944;2022-12-29T03:59:32;5.20;99.90
26037;DHT22;13810;48.376;10.944;2022-12-29T04:00:05;5.20;99.90
26037;DHT22;13810;48.376;10.944;2022-12-29T04:00:36;5.20;99.90
26037;DHT22;13810;48.376;10.944;2022-12-29T04:01:07;5.20;99.90
26037;DHT22;13810;48.376;10.944;2022-12-29T04:01:37;5.20;99.90
26037;DHT22;13810;48.376;10.944;2022-12-29T04:02:08;5.20;99.90
26037;DHT22;13810;48.376;10.944;2022-12-29T04:02:39;5.20;99.90
26037;DHT22;13810;48.376;10.944;2022-12-29T04:03:09;5.30;99.90
26037;DHT22;13810;48.376;10.944;2022-12-29T04:03:40;5.30;99.90
26037;DHT22;13810;48.376;10.944;2022-12-29T04:04:11;5.30;99.90
26037;DHT22;13810;48.376;10.944;2022-12-29T04:04:41;5.30;99.90
26037;DHT22;13810;48.376;10.944;2022-12-29T04:05:12;5.30;99.90
26037;DHT22;13810;48.376;10.944;2022-12-29T04:05:43;5.40;99.90
26037;DHT22;13810;48.376;10.944;2022-12-29T04:06:13;5.40;99.90
26037;DHT22;13810;48.376;10.944;2022-12-29T04:06:44;5.40;99.90
26037;DHT22;13810;48.376;10.944;2022-12-29T04:07:15;5.40;99.90
26037;DHT22;13810;48.376;10.944;2022-12-29T04:07:46;5.40;99.90
26037;DHT22;13810;48.376;10.944;2022-12-29T04:08:16;5.40;99.90
26037;DHT22;13810;48.376;10.944;2022-12-29T04:08:47;5.40;99.90
26037;DHT22;13810;48.376;10.944;2022-12-29T04:09:17;5.40;99.90
26037;DHT22;13810;48.376;10.944;2022-12-29T04:09:48;5.40;99.90
26037;DHT22;13810;48.376;10.944;2022-12-29T04:10:19;5.40;99.90
26037;DHT22;13810;48.376;10.944;2022-12-29T04:10:49;5.40;99.90
26037;DHT22;13810;48.376;10.944;2022-12-29T04:11:21;5.40;99.90
26037;DHT22;13810;48.376;10.944;2022-12-29T04:11:51;5.50;99.90
26037;DHT22;13810;48.376;10.944;2022-12-29T04:12:22;5.50;99.90
26037;DHT22;13810;48.376;10.944;2022-12-29T04:12:53;5.50;99.90
26037;DHT22;13810;48.376;10.944;2022-12-29T04:13:23;5.50;99.90
26037;DHT22;13810;48.376;10.944;2022-12-29T04:13:54;5.50;99.90
26037;DHT22;13810;48.376;10.944;2022-12-29T04:14:25;5.50;99.90
26037;DHT22;13810;48.376;10.944;2022-12-29T04:14:55;5.50;99.90